Umar1 — 9HA2498 — position and weather

sailwx.info

Track history (hours):
 
Tides and Currents Weather Stations Pressure Air Temp Water Temp Dewpoint Dewpoint Depression Visibility Wind Speed Wind Dir Waves Ship Positions

Umar1

Last reported at 2017-Jul-23 22:28 UTC. Time now 2017-Jul-23 22:37 UTC.
Position N 51°17' E 004°14'.

Length 100 m; draft 6.2 m.

Type: Ship (hazmat cat B). MMSI: 248751000.

Date/timePositionNaut miles runAvg speedWind from/ knotsBaromVisibWave heightAir tempDewpointWater temp
2017-Jul-23 22:28N 51°17' E 004°14'0 0.0
2017-Jul-23 21:55N 51°17' E 004°14'0 0.0
2017-Jul-23 21:28N 51°17' E 004°14'0 0.0
2017-Jul-23 20:58N 51°17' E 004°14'0 0.0
2017-Jul-23 20:13N 51°17' E 004°14'0 0.0
2017-Jul-23 19:55N 51°17' E 004°14'0 0.0
2017-Jul-23 19:25N 51°17' E 004°14'0 0.0
2017-Jul-23 18:55N 51°17' E 004°14'0 0.0
2017-Jul-23 18:10N 51°17' E 004°14'0 0.0
2017-Jul-23 17:49N 51°17' E 004°14'0 0.0
2017-Jul-23 17:28N 51°17' E 004°14'0 0.0
2017-Jul-23 16:52N 51°17' E 004°14'0 0.0
2017-Jul-23 16:19N 51°17' E 004°14'0 0.0
2017-Jul-23 15:55N 51°17' E 004°14'0 0.0
2017-Jul-23 15:22N 51°17' E 004°14'0 0.0
2017-Jul-23 14:58N 51°17' E 004°14'0 0.0
2017-Jul-23 14:22N 51°17' E 004°14'0 0.0
2017-Jul-23 13:58N 51°17' E 004°14'0 0.0
2017-Jul-23 13:25N 51°17' E 004°14'0 0.0
2017-Jul-23 12:58N 51°17' E 004°14'0 0.0
2017-Jul-23 12:22N 51°17' E 004°14'0 0.0
2017-Jul-23 11:55N 51°17' E 004°14'0 0.2
2017-Jul-23 10:58N 51°17' E 004°14'2 4.9
2017-Jul-23 10:30N 51°16' E 004°17'0 0.1
2017-Jul-23 10:00N 51°16' E 004°17'0 0.0
2017-Jul-23 09:31N 51°16' E 004°17'1 1.4
2017-Jul-23 09:01N 51°16' E 004°18'3 5.5
2017-Jul-23 08:31N 51°19' E 004°16'4 8.4
2017-Jul-23 08:00N 51°22' E 004°13'3 6.0
2017-Jul-23 07:31N 51°22' E 004°08'4 8.0
2017-Jul-23 07:00N 51°23' E 004°02'3 6.4
2017-Jul-23 06:30N 51°26' E 003°59'4 8.7
2017-Jul-23 06:00N 51°22' E 003°55'4 7.9
2017-Jul-23 05:29N 51°21' E 003°49'4 8.1
2017-Jul-23 05:00N 51°23' E 003°43'4 7.7
2017-Jul-23 04:30N 51°25' E 003°38'4 7.6
2017-Jul-23 04:00N 51°25' E 003°32'4 8.8
2017-Jul-23 03:30N 51°25' E 003°25'510.1
2017-Jul-23 03:00N 51°24' E 003°17'611.1
2017-Jul-23 02:30N 51°24' E 003°08'611.5
2017-Jul-23 02:00N 51°23' E 002°59'612.3
2017-Jul-23 01:30N 51°22' E 002°50'5 9.1
2017-Jul-23 01:00N 51°22' E 002°42'4 7.5
2017-Jul-23 00:30N 51°22' E 002°36'4 8.8
2017-Jul-23 00:00N 51°22' E 002°29'4 8.4
2017-Jul-22 23:30N 51°20' E 002°23'611.5
2017-Jul-22 22:59N 51°17' E 002°15'611.4
2017-Jul-22 22:29N 51°14' E 002°07'612.2
2017-Jul-22 22:00N 51°11' E 001°59'612.8
2017-Jul-22 21:30N 51°08' E 001°51'612.6
2017-Jul-22 21:00N 51°03' E 001°44'612.2
2017-Jul-22 20:30N 50°59' E 001°37'611.3
2017-Jul-22 19:56N 50°54' E 001°30'11810.1
2017-Jul-22 08:17N 50°05' W 001°19'414.1
2017-Jul-22 08:01N 50°04' W 001°24'714.4
2017-Jul-22 07:30N 50°02' W 001°35'714.9
2017-Jul-22 07:00N 50°00' W 001°46'6113.2
2017-Jul-22 02:23N 49°40' W 003°16'  
2017-Jul-19 00:38N 39°11' W 009°57'210.4
2017-Jul-19 00:27N 39°09' W 009°57'510.5
2017-Jul-19 00:00N 39°04' W 009°57'510.8
2017-Jul-18 23:30N 38°59' W 009°57'510.6
2017-Jul-18 23:00N 38°54' W 009°57'510.3
2017-Jul-18 22:30N 38°49' W 009°57'510.1
2017-Jul-18 22:00N 38°44' W 009°57'5 9.8
2017-Jul-18 21:30N 38°39' W 009°56'510.1
2017-Jul-18 21:00N 38°34' W 009°54'510.2
2017-Jul-18 20:30N 38°29' W 009°53'510.0
2017-Jul-18 20:00N 38°24' W 009°52'510.0
2017-Jul-18 19:30N 38°19' W 009°50'109 9.5
2017-Jul-18 08:02N 36°37' W 008°60'0 9.6
2017-Jul-18 08:00N 36°37' W 008°59'5 9.1
2017-Jul-18 07:29N 36°36' W 008°54'15 9.3
2017-Jul-18 05:53N 36°30' W 008°37'410.1
2017-Jul-18 05:30N 36°28' W 008°33'510.2
2017-Jul-18 05:00N 36°26' W 008°27'1110.4
2017-Jul-18 03:54N 36°21' W 008°14'610.2
2017-Jul-18 03:18N 36°20' W 008°06'510.2
2017-Jul-18 02:48N 36°19' W 008°00'410.2
2017-Jul-18 02:26N 36°18' W 007°56'410.2
2017-Jul-18 02:00N 36°17' W 007°50'12011.0
2017-Jul-17 15:01N 35°59' W 005°23'110.2
2017-Jul-17 14:54N 35°58' W 005°22'410.7
2017-Jul-17 14:30N 35°55' W 005°19'1 2.1
2017-Jul-17 13:59N 35°54' W 005°18'232 8.3
2017-Jul-16 10:01N 37°22' W 000°51'611.2
2017-Jul-16 09:28N 37°26' W 000°46'1911.0
2017-Jul-16 07:47N 37°39' W 000°29'311.2
2017-Jul-16 07:31N 37°42' W 000°27'14811.0
2017-Jul-15 18:04N 39°43' E 001°21'210.9
2017-Jul-15 17:54N 39°45' E 001°23'411.0
2017-Jul-15 17:30N 39°48' E 001°26'511.1
2017-Jul-15 17:00N 39°53' E 001°31'611.1
2017-Jul-15 16:30N 39°57' E 001°35'510.9
2017-Jul-15 16:00N 40°01' E 001°40'611.1
2017-Jul-15 15:30N 40°06' E 001°44'611.0
2017-Jul-15 15:00N 40°10' E 001°49'1110.9
2017-Jul-15 14:00N 40°19' E 001°57'511.0
2017-Jul-15 13:30N 40°23' E 002°01'510.7
2017-Jul-15 13:00N 40°27' E 002°06'510.9
2017-Jul-15 12:30N 40°32' E 002°10'510.9
2017-Jul-15 12:00N 40°36' E 002°14'510.4
2017-Jul-15 11:30N 40°40' E 002°18'6 9.6
2017-Jul-15 10:51N 40°45' E 002°24'410.7
2017-Jul-15 10:30N 40°48' E 002°27'611.0
2017-Jul-15 09:59N 40°53' E 002°31'611.1
2017-Jul-15 09:27N 40°57' E 002°36'511.3
2017-Jul-15 08:59N 41°02' E 002°40'511.1
2017-Jul-15 08:30N 41°06' E 002°44'14611.1
2017-Jul-14 19:19N 42°59' E 004°47'311.0
2017-Jul-14 19:00N 43°02' E 004°50'19 9.9
2017-Jul-14 17:04N 43°20' E 004°58'111.5
2017-Jul-14 17:00N 43°21' E 004°58'3 4.1
2017-Jul-14 16:24N 43°24' E 004°58'0 0.0
2017-Jul-14 15:42N 43°24' E 004°58'0 0.0
2017-Jul-14 15:24N 43°24' E 004°58'0 0.0
2017-Jul-14 15:00N 43°24' E 004°58'0 0.0
2017-Jul-14 14:27N 43°24' E 004°58'0 0.0
2017-Jul-14 13:57N 43°24' E 004°58'0 0.0
2017-Jul-14 13:21N 43°24' E 004°58'0 0.0
2017-Jul-14 12:39N 43°24' E 004°58'0 0.0
2017-Jul-14 12:21N 43°24' E 004°58'0 0.0
2017-Jul-14 12:00N 43°24' E 004°58'0 0.0
2017-Jul-14 11:30N 43°24' E 004°58'0 0.0
2017-Jul-14 10:57N 43°24' E 004°58'0 0.0
2017-Jul-14 10:30N 43°24' E 004°58'0 0.0
2017-Jul-14 09:54N 43°24' E 004°58'0 0.0
2017-Jul-14 09:24N 43°24' E 004°58'0 0.0
2017-Jul-14 08:57N 43°24' E 004°58'0 0.0
2017-Jul-14 08:24N 43°24' E 004°58'0 0.0
2017-Jul-14 07:51N 43°24' E 004°58'0 0.0
2017-Jul-14 07:30N 43°24' E 004°58'0 0.0
2017-Jul-14 06:57N 43°24' E 004°58'0 0.0
2017-Jul-14 06:30N 43°24' E 004°58'0 0.0
2017-Jul-14 05:57N 43°24' E 004°58'0 0.0
2017-Jul-14 05:30N 43°24' E 004°58'0 0.0
2017-Jul-14 05:00N 43°24' E 004°58'0 0.0
2017-Jul-14 04:30N 43°24' E 004°58'0 0.0
2017-Jul-14 03:54N 43°24' E 004°58'0 0.0
2017-Jul-14 03:30N 43°24' E 004°58'0 0.0
2017-Jul-14 02:48N 43°24' E 004°58'0 0.0
2017-Jul-14 02:30N 43°24' E 004°58'0 0.0
2017-Jul-14 01:57N 43°24' E 004°58'0 0.0
2017-Jul-14 01:27N 43°24' E 004°58'0 0.0
2017-Jul-14 01:00N 43°24' E 004°58'0 0.0
2017-Jul-14 00:24N 43°24' E 004°58'0 0.0
2017-Jul-13 23:54N 43°24' E 004°58'0 0.0
2017-Jul-13 23:30N 43°24' E 004°58'0 0.0
2017-Jul-13 22:57N 43°24' E 004°58'0 0.0
2017-Jul-13 22:30N 43°24' E 004°58'  
Track history (hours):
 
Tides and Currents Weather Stations Pressure Air Temp Water Temp Dewpoint Dewpoint Depression Visibility Wind Speed Wind Dir Waves Ship Positions

Umar1

Last reported at 2017-Jul-23 22:28 UTC. Time now 2017-Jul-23 22:37 UTC.
Position N 51°17' E 004°14'.

Length 100 m; draft 6.2 m.

Type: Ship (hazmat cat B). MMSI: 248751000.

Date/timePositionNaut miles runAvg speedWind from/ knotsBaromVisibWave heightAir tempDewpointWater temp
2017-Jul-23 22:28N 51°17' E 004°14'0 0.0
2017-Jul-23 21:55N 51°17' E 004°14'0 0.0
2017-Jul-23 21:28N 51°17' E 004°14'0 0.0
2017-Jul-23 20:58N 51°17' E 004°14'0 0.0
2017-Jul-23 20:13N 51°17' E 004°14'0 0.0
2017-Jul-23 19:55N 51°17' E 004°14'0 0.0
2017-Jul-23 19:25N 51°17' E 004°14'0 0.0
2017-Jul-23 18:55N 51°17' E 004°14'0 0.0
2017-Jul-23 18:10N 51°17' E 004°14'0 0.0
2017-Jul-23 17:49N 51°17' E 004°14'0 0.0
2017-Jul-23 17:28N 51°17' E 004°14'0 0.0
2017-Jul-23 16:52N 51°17' E 004°14'0 0.0
2017-Jul-23 16:19N 51°17' E 004°14'0 0.0
2017-Jul-23 15:55N 51°17' E 004°14'0 0.0
2017-Jul-23 15:22N 51°17' E 004°14'0 0.0
2017-Jul-23 14:58N 51°17' E 004°14'0 0.0
2017-Jul-23 14:22N 51°17' E 004°14'0 0.0
2017-Jul-23 13:58N 51°17' E 004°14'0 0.0
2017-Jul-23 13:25N 51°17' E 004°14'0 0.0
2017-Jul-23 12:58N 51°17' E 004°14'0 0.0
2017-Jul-23 12:22N 51°17' E 004°14'0 0.0
2017-Jul-23 11:55N 51°17' E 004°14'0 0.2
2017-Jul-23 10:58N 51°17' E 004°14'2 4.9
2017-Jul-23 10:30N 51°16' E 004°17'0 0.1
2017-Jul-23 10:00N 51°16' E 004°17'0 0.0
2017-Jul-23 09:31N 51°16' E 004°17'1 1.4
2017-Jul-23 09:01N 51°16' E 004°18'3 5.5
2017-Jul-23 08:31N 51°19' E 004°16'4 8.4
2017-Jul-23 08:00N 51°22' E 004°13'3 6.0
2017-Jul-23 07:31N 51°22' E 004°08'4 8.0
2017-Jul-23 07:00N 51°23' E 004°02'3 6.4
2017-Jul-23 06:30N 51°26' E 003°59'4 8.7
2017-Jul-23 06:00N 51°22' E 003°55'4 7.9
2017-Jul-23 05:29N 51°21' E 003°49'4 8.1
2017-Jul-23 05:00N 51°23' E 003°43'4 7.7
2017-Jul-23 04:30N 51°25' E 003°38'4 7.6
2017-Jul-23 04:00N 51°25' E 003°32'4 8.8
2017-Jul-23 03:30N 51°25' E 003°25'510.1
2017-Jul-23 03:00N 51°24' E 003°17'611.1
2017-Jul-23 02:30N 51°24' E 003°08'611.5
2017-Jul-23 02:00N 51°23' E 002°59'612.3
2017-Jul-23 01:30N 51°22' E 002°50'5 9.1
2017-Jul-23 01:00N 51°22' E 002°42'4 7.5
2017-Jul-23 00:30N 51°22' E 002°36'4 8.8
2017-Jul-23 00:00N 51°22' E 002°29'4 8.4
2017-Jul-22 23:30N 51°20' E 002°23'611.5
2017-Jul-22 22:59N 51°17' E 002°15'611.4
2017-Jul-22 22:29N 51°14' E 002°07'612.2
2017-Jul-22 22:00N 51°11' E 001°59'612.8
2017-Jul-22 21:30N 51°08' E 001°51'612.6
2017-Jul-22 21:00N 51°03' E 001°44'612.2
2017-Jul-22 20:30N 50°59' E 001°37'611.3
2017-Jul-22 19:56N 50°54' E 001°30'11810.1
2017-Jul-22 08:17N 50°05' W 001°19'414.1
2017-Jul-22 08:01N 50°04' W 001°24'714.4
2017-Jul-22 07:30N 50°02' W 001°35'714.9
2017-Jul-22 07:00N 50°00' W 001°46'6113.2
2017-Jul-22 02:23N 49°40' W 003°16'  
2017-Jul-19 00:38N 39°11' W 009°57'210.4
2017-Jul-19 00:27N 39°09' W 009°57'510.5
2017-Jul-19 00:00N 39°04' W 009°57'510.8
2017-Jul-18 23:30N 38°59' W 009°57'510.6
2017-Jul-18 23:00N 38°54' W 009°57'510.3
2017-Jul-18 22:30N 38°49' W 009°57'510.1
2017-Jul-18 22:00N 38°44' W 009°57'5 9.8
2017-Jul-18 21:30N 38°39' W 009°56'510.1
2017-Jul-18 21:00N 38°34' W 009°54'510.2
2017-Jul-18 20:30N 38°29' W 009°53'510.0
2017-Jul-18 20:00N 38°24' W 009°52'510.0
2017-Jul-18 19:30N 38°19' W 009°50'109 9.5
2017-Jul-18 08:02N 36°37' W 008°60'0 9.6
2017-Jul-18 08:00N 36°37' W 008°59'5 9.1
2017-Jul-18 07:29N 36°36' W 008°54'15 9.3
2017-Jul-18 05:53N 36°30' W 008°37'410.1
2017-Jul-18 05:30N 36°28' W 008°33'510.2
2017-Jul-18 05:00N 36°26' W 008°27'1110.4
2017-Jul-18 03:54N 36°21' W 008°14'610.2
2017-Jul-18 03:18N 36°20' W 008°06'510.2
2017-Jul-18 02:48N 36°19' W 008°00'410.2
2017-Jul-18 02:26N 36°18' W 007°56'410.2
2017-Jul-18 02:00N 36°17' W 007°50'12011.0
2017-Jul-17 15:01N 35°59' W 005°23'110.2
2017-Jul-17 14:54N 35°58' W 005°22'410.7
2017-Jul-17 14:30N 35°55' W 005°19'1 2.1
2017-Jul-17 13:59N 35°54' W 005°18'232 8.3
2017-Jul-16 10:01N 37°22' W 000°51'611.2
2017-Jul-16 09:28N 37°26' W 000°46'1911.0
2017-Jul-16 07:47N 37°39' W 000°29'311.2
2017-Jul-16 07:31N 37°42' W 000°27'14811.0
2017-Jul-15 18:04N 39°43' E 001°21'210.9
2017-Jul-15 17:54N 39°45' E 001°23'411.0
2017-Jul-15 17:30N 39°48' E 001°26'511.1
2017-Jul-15 17:00N 39°53' E 001°31'611.1
2017-Jul-15 16:30N 39°57' E 001°35'510.9
2017-Jul-15 16:00N 40°01' E 001°40'611.1
2017-Jul-15 15:30N 40°06' E 001°44'611.0
2017-Jul-15 15:00N 40°10' E 001°49'1110.9
2017-Jul-15 14:00N 40°19' E 001°57'511.0
2017-Jul-15 13:30N 40°23' E 002°01'510.7
2017-Jul-15 13:00N 40°27' E 002°06'510.9
2017-Jul-15 12:30N 40°32' E 002°10'510.9
2017-Jul-15 12:00N 40°36' E 002°14'510.4
2017-Jul-15 11:30N 40°40' E 002°18'6 9.6
2017-Jul-15 10:51N 40°45' E 002°24'410.7
2017-Jul-15 10:30N 40°48' E 002°27'611.0
2017-Jul-15 09:59N 40°53' E 002°31'611.1
2017-Jul-15 09:27N 40°57' E 002°36'511.3
2017-Jul-15 08:59N 41°02' E 002°40'511.1
2017-Jul-15 08:30N 41°06' E 002°44'14611.1
2017-Jul-14 19:19N 42°59' E 004°47'311.0
2017-Jul-14 19:00N 43°02' E 004°50'19 9.9
2017-Jul-14 17:04N 43°20' E 004°58'111.5
2017-Jul-14 17:00N 43°21' E 004°58'3 4.1
2017-Jul-14 16:24N 43°24' E 004°58'0 0.0
2017-Jul-14 15:42N 43°24' E 004°58'0 0.0
2017-Jul-14 15:24N 43°24' E 004°58'0 0.0
2017-Jul-14 15:00N 43°24' E 004°58'0 0.0
2017-Jul-14 14:27N 43°24' E 004°58'0 0.0
2017-Jul-14 13:57N 43°24' E 004°58'0 0.0
2017-Jul-14 13:21N 43°24' E 004°58'0 0.0
2017-Jul-14 12:39N 43°24' E 004°58'0 0.0
2017-Jul-14 12:21N 43°24' E 004°58'0 0.0
2017-Jul-14 12:00N 43°24' E 004°58'0 0.0
2017-Jul-14 11:30N 43°24' E 004°58'0 0.0
2017-Jul-14 10:57N 43°24' E 004°58'0 0.0
2017-Jul-14 10:30N 43°24' E 004°58'0 0.0
2017-Jul-14 09:54N 43°24' E 004°58'0 0.0
2017-Jul-14 09:24N 43°24' E 004°58'0 0.0
2017-Jul-14 08:57N 43°24' E 004°58'0 0.0
2017-Jul-14 08:24N 43°24' E 004°58'0 0.0
2017-Jul-14 07:51N 43°24' E 004°58'0 0.0
2017-Jul-14 07:30N 43°24' E 004°58'0 0.0
2017-Jul-14 06:57N 43°24' E 004°58'0 0.0
2017-Jul-14 06:30N 43°24' E 004°58'0 0.0
2017-Jul-14 05:57N 43°24' E 004°58'0 0.0
2017-Jul-14 05:30N 43°24' E 004°58'0 0.0
2017-Jul-14 05:00N 43°24' E 004°58'0 0.0
2017-Jul-14 04:30N 43°24' E 004°58'0 0.0
2017-Jul-14 03:54N 43°24' E 004°58'0 0.0
2017-Jul-14 03:30N 43°24' E 004°58'0 0.0
2017-Jul-14 02:48N 43°24' E 004°58'0 0.0
2017-Jul-14 02:30N 43°24' E 004°58'0 0.0
2017-Jul-14 01:57N 43°24' E 004°58'0 0.0
2017-Jul-14 01:27N 43°24' E 004°58'0 0.0
2017-Jul-14 01:00N 43°24' E 004°58'0 0.0
2017-Jul-14 00:24N 43°24' E 004°58'0 0.0
2017-Jul-13 23:54N 43°24' E 004°58'0 0.0
2017-Jul-13 23:30N 43°24' E 004°58'0 0.0
2017-Jul-13 22:57N 43°24' E 004°58'0 0.0
2017-Jul-13 22:30N 43°24' E 004°58'  

Dump ship's entire track history